Longford, Kansas
Current Conditions -  °F | °C
As of 1:53 AM on Monday 26 Jan 2015 (Local Time) from KSLN Reporting Station
Overcast Overcast  
Wind Chill: 29°   Ceiling: 9000
Heat Index: 29°   Visibility: 10mi
Dew Point: 25°   Wind: 3mph
Humidity: 85%   Direction: 150°SSE
Pressure: 30.12"   Gusts: NA
Location:  39.17°N, 97.33°W
Report Text: KSLN 260753Z AUTO 15003KT 10SM OVC090 M02/M04 A3012 RMK AO2 SLP208 T10171039
Loading
Personal Weather Stations






























Interactive Weather Map New forecast layout! Learn more

10-Day Weather Forecast

Advertisements
Track Severe Weather on mobile